Time;durP1;ratioP1;P1;durP2;ratioP2;P2;SDS_P1;SDS_P2;PMS_P1;PMS_P2;Temp;Humidity;BMP_temperature;BMP_pressure;BME280_temperature;BME280_humidity;BME280_pressure;Samples;Min_cycle;Max_cycle;Signal;HPM_P1;HPM_P2
2023/09/10 00:00:28;;;;;;;14.80;6.13;;;;;;;-145.69;55.50;51832.50;5112062;28;20525;-80
2023/09/10 00:02:54;;;;;;;9.25;5.65;;;;;;;-145.69;55.42;51830.50;5112562;28;20808;-81
2023/09/10 00:05:20;;;;;;;10.82;5.97;;;;;;;-145.69;55.31;51840.41;5112337;28;20197;-80
2023/09/10 00:07:47;;;;;;;11.48;6.38;;;;;;;-145.69;54.99;51826.56;5115942;28;20204;-81
2023/09/10 00:10:14;;;;;;;11.50;5.85;;;;;;;-145.69;54.95;51838.44;5115998;28;20587;-81
2023/09/10 00:12:42;;;;;;;13.55;5.95;;;;;;;-145.69;54.90;51826.56;5116625;28;20698;-81
2023/09/10 00:15:09;;;;;;;12.05;6.47;;;;;;;-145.69;55.16;51824.56;5115881;28;20644;-81
2023/09/10 00:17:36;;;;;;;8.63;5.82;;;;;;;-145.69;55.42;51848.34;5116438;28;20208;-81
2023/09/10 00:20:02;;;;;;;16.60;7.18;;;;;;;-145.69;55.80;51840.41;5115197;28;20194;-81
2023/09/10 00:22:29;;;;;;;14.10;6.35;;;;;;;-145.69;55.01;51858.22;5116120;28;20233;-81
2023/09/10 00:24:55;;;;;;;10.90;6.03;;;;;;;-145.69;55.59;51836.44;5115848;28;20197;-81
2023/09/10 00:27:22;;;;;;;11.40;6.93;;;;;;;-145.69;55.33;51838.44;5116044;28;20198;-81
2023/09/10 00:29:50;;;;;;;10.80;6.00;;;;;;;-145.69;55.09;51860.22;5115133;28;20220;-81
2023/09/10 00:32:16;;;;;;;13.13;6.63;;;;;;;-145.69;55.65;51866.16;5116095;28;20204;-81
2023/09/10 00:34:42;;;;;;;9.55;6.32;;;;;;;-145.69;55.44;51822.59;5115510;28;20567;-81
2023/09/10 00:37:09;;;;;;;14.60;7.00;;;;;;;-145.69;55.45;51856.25;5115831;28;20197;-81
2023/09/10 00:39:35;;;;;;;14.50;6.32;;;;;;;-145.69;55.46;51858.22;5114986;28;20667;-80
2023/09/10 00:42:02;;;;;;;14.10;6.75;;;;;;;-145.69;56.23;51854.28;5115020;28;20197;-80
2023/09/10 00:44:28;;;;;;;11.38;6.80;;;;;;;-145.69;55.87;51826.56;5115370;28;20205;-81
2023/09/10 00:46:57;;;;;;;10.10;6.70;;;;;;;-145.69;55.81;51862.19;5115664;28;20205;-81
2023/09/10 00:49:24;;;;;;;11.32;7.03;;;;;;;-145.69;55.97;51866.16;5114043;28;20225;-81
2023/09/10 00:51:51;;;;;;;12.45;7.05;;;;;;;-145.69;55.64;51864.16;5115482;28;20208;-81
2023/09/10 00:54:19;;;;;;;12.27;6.50;;;;;;;-145.69;55.52;51848.34;5115343;28;20556;-81
2023/09/10 00:56:46;;;;;;;13.05;7.20;;;;;;;-145.69;55.70;51854.28;5115316;28;20205;-81
2023/09/10 00:59:12;;;;;;;12.68;6.85;;;;;;;-145.69;56.39;51856.25;5114670;28;20200;-81
2023/09/10 01:01:39;;;;;;;12.63;7.32;;;;;;;-145.69;56.47;51866.16;5114728;28;20198;-80
2023/09/10 01:04:07;;;;;;;14.73;7.93;;;;;;;-145.69;56.67;51848.34;5115229;28;20194;-82
2023/09/10 01:06:34;;;;;;;14.80;7.25;;;;;;;-145.69;56.54;51850.31;5115317;28;20201;-82
2023/09/10 01:09:00;;;;;;;13.18;7.50;;;;;;;-145.69;56.44;51860.22;5114693;28;20194;-81
2023/09/10 01:11:36;;;;;;;13.93;8.00;;;;;;;-145.69;56.12;51850.31;5114410;28;20206;-81
2023/09/10 01:14:11;;;;;;;10.88;7.97;;;;;;;-145.69;56.82;51872.09;5114708;28;20193;-82
2023/09/10 01:16:43;;;;;;;13.75;7.80;;;;;;;-145.69;56.37;51854.28;5114939;28;20568;-80
2023/09/10 01:19:34;;;;;;;12.32;6.93;;;;;;;-145.69;56.08;51842.38;5114834;28;20306;-81
2023/09/10 01:22:10;;;;;;;12.20;6.93;;;;;;;-145.69;56.25;51882.00;5115225;28;20201;-81
2023/09/10 01:24:49;;;;;;;11.13;7.45;;;;;;;-145.69;56.31;51862.19;5114649;28;20193;-81
2023/09/10 01:27:16;;;;;;;9.98;6.68;;;;;;;-145.69;57.04;51850.31;5115038;28;20197;-81
2023/09/10 01:29:43;;;;;;;12.93;8.45;;;;;;;-145.69;57.21;51878.03;5113596;28;20232;-81
2023/09/10 01:32:16;;;;;;;14.77;8.27;;;;;;;-145.69;57.74;51870.13;5114376;28;20197;-81
2023/09/10 01:34:47;;;;;;;14.82;7.22;;;;;;;-145.69;57.03;51866.16;5114367;28;20211;-80
2023/09/10 01:37:19;;;;;;;13.50;8.07;;;;;;;-145.69;57.70;51882.00;5114677;28;20201;-81
2023/09/10 01:39:52;;;;;;;14.43;7.78;;;;;;;-145.69;57.01;51850.31;5114053;28;20637;-80
2023/09/10 01:42:19;;;;;;;20.10;9.18;;;;;;;-145.69;58.84;51868.13;5114446;28;20208;-81
2023/09/10 01:44:46;;;;;;;11.18;8.95;;;;;;;-145.69;58.93;51885.94;5113057;28;20209;-81
2023/09/10 01:47:13;;;;;;;14.52;8.73;;;;;;;-145.69;58.72;51874.06;5114411;28;20670;-81
2023/09/10 01:49:40;;;;;;;16.52;9.52;;;;;;;-145.69;59.99;51870.13;5114152;28;20224;-80
2023/09/10 01:52:06;;;;;;;17.23;9.95;;;;;;;-145.69;59.42;51897.84;5114612;28;20193;-82
2023/09/10 01:54:32;;;;;;;15.85;9.05;;;;;;;-145.69;59.10;51880.00;5113552;28;20205;-80
2023/09/10 01:57:01;;;;;;;13.52;7.85;;;;;;;-145.69;59.01;51862.19;5114342;28;20201;-81
2023/09/10 01:59:27;;;;;;;14.25;9.02;;;;;;;-145.69;59.39;51903.78;5113861;28;20194;-80
2023/09/10 02:01:54;;;;;;;14.18;8.60;;;;;;;-145.69;59.17;51909.72;5114419;28;20197;-81
2023/09/10 02:04:20;;;;;;;12.60;7.72;;;;;;;-145.69;59.13;51874.06;5113895;28;20201;-81
2023/09/10 02:06:46;;;;;;;12.65;8.32;;;;;;;-145.69;59.91;51862.19;5113648;28;20193;-81
2023/09/10 02:09:13;;;;;;;17.40;10.02;;;;;;;-145.69;60.26;51880.00;5113040;28;20205;-81
2023/09/10 02:11:39;;;;;;;12.70;8.48;;;;;;;-145.69;59.76;51911.69;5113890;28;20204;-81
2023/09/10 02:14:07;;;;;;;14.23;8.38;;;;;;;-145.69;59.63;51893.88;5113367;28;20197;-81
2023/09/10 02:16:33;;;;;;;12.02;8.60;;;;;;;-145.69;59.83;51880.00;5113763;28;20197;-81
2023/09/10 02:19:00;;;;;;;16.90;8.77;;;;;;;-145.69;60.05;51882.00;5113654;28;20205;-81
2023/09/10 02:21:26;;;;;;;12.70;8.73;;;;;;;-145.69;59.74;51885.94;5113723;28;20198;-80
2023/09/10 02:23:53;;;;;;;13.45;9.20;;;;;;;-145.69;60.14;51889.91;5113633;28;20193;-80
2023/09/10 02:26:19;;;;;;;15.48;9.75;;;;;;;-145.69;60.66;51907.72;5113257;28;20216;-81
2023/09/10 02:28:46;;;;;;;14.68;9.57;;;;;;;-145.69;60.56;51909.72;5113292;28;20204;-81
2023/09/10 02:31:14;;;;;;;18.10;9.80;;;;;;;-145.69;59.97;51883.97;5113758;28;20218;-80
2023/09/10 02:33:40;;;;;;;15.75;9.23;;;;;;;-145.69;60.16;51862.19;5113322;28;20242;-81
2023/09/10 02:36:07;;;;;;;15.95;9.57;;;;;;;-145.69;60.60;51882.00;5112856;28;20204;-81
2023/09/10 02:38:34;;;;;;;15.02;10.60;;;;;;;-145.69;60.81;51917.63;5113620;28;20602;-80
2023/09/10 02:41:00;;;;;;;20.95;11.32;;;;;;;-145.69;60.66;51913.69;5112847;28;20233;-80
2023/09/10 02:43:27;;;;;;;15.88;10.73;;;;;;;-145.69;60.13;51905.75;5113163;28;20533;-80
2023/09/10 02:45:53;;;;;;;18.38;11.23;;;;;;;-145.69;61.04;51885.94;5112575;28;20225;-81
2023/09/10 02:48:22;;;;;;;18.33;11.38;;;;;;;-145.69;60.38;51891.88;5112607;28;20189;-81
2023/09/10 02:50:49;;;;;;;17.02;9.90;;;;;;;-145.69;60.32;51878.03;5112737;28;20217;-81
2023/09/10 02:53:15;;;;;;;19.42;10.20;;;;;;;-145.69;60.51;51909.72;5112870;28;20660;-81
2023/09/10 02:55:41;;;;;;;13.20;10.55;;;;;;;-145.69;60.54;51895.84;5112929;28;20204;-81
2023/09/10 02:58:08;;;;;;;13.60;10.25;;;;;;;-145.69;60.39;51893.88;5113379;28;20201;-81
2023/09/10 03:00:34;;;;;;;16.23;9.85;;;;;;;-145.69;60.58;51893.88;5112936;28;20201;-81
2023/09/10 03:03:01;;;;;;;14.05;9.73;;;;;;;-145.69;60.64;51913.69;5113010;28;20194;-81
2023/09/10 03:05:33;;;;;;;13.68;9.82;;;;;;;-145.69;60.68;51897.84;5113041;28;20204;-81
2023/09/10 03:07:59;;;;;;;16.17;11.73;;;;;;;-145.69;61.53;51893.88;5112706;28;20197;-81
2023/09/10 03:10:26;;;;;;;16.27;10.82;;;;;;;-145.69;62.22;51931.50;5112792;28;20236;-81
2023/09/10 03:12:52;;;;;;;17.88;10.85;;;;;;;-145.69;61.01;51885.94;5113110;28;20189;-81
2023/09/10 03:15:19;;;;;;;17.80;11.55;;;;;;;-145.69;60.70;51897.84;5112935;28;20197;-81
2023/09/10 03:17:45;;;;;;;19.10;10.68;;;;;;;-145.69;60.76;51921.59;5112996;28;20343;-82
2023/09/10 03:20:12;;;;;;;16.83;10.73;;;;;;;-145.69;61.36;51909.72;5112730;28;20194;-81
2023/09/10 03:22:40;;;;;;;20.30;11.82;;;;;;;-145.69;61.09;51893.88;5112679;28;20199;-82
2023/09/10 03:25:07;;;;;;;19.83;12.32;;;;;;;-145.69;61.47;51893.88;5112533;28;20193;-81
2023/09/10 03:27:33;;;;;;;18.55;11.85;;;;;;;-145.69;61.43;51891.88;5112819;28;20193;-82
2023/09/10 03:30:00;;;;;;;13.32;9.98;;;;;;;-145.69;61.31;51925.56;5112771;28;20221;-82
2023/09/10 03:32:27;;;;;;;17.08;10.35;;;;;;;-145.69;61.00;51889.91;5112512;28;20194;-81
2023/09/10 03:34:53;;;;;;;14.02;10.02;;;;;;;-145.69;60.99;51945.34;5112727;28;20201;-81
2023/09/10 03:37:20;;;;;;;15.27;10.07;;;;;;;-145.69;61.11;51925.56;5113394;28;20209;-82
2023/09/10 03:39:48;;;;;;;15.23;10.55;;;;;;;-145.69;61.34;51941.41;5113684;28;20201;-82
2023/09/10 03:42:16;;;;;;;17.85;11.27;;;;;;;-145.69;61.94;51917.63;5116582;28;20568;-82
2023/09/10 03:44:42;;;;;;;15.98;10.93;;;;;;;-145.69;61.69;51909.72;5116429;28;20201;-82
2023/09/10 03:47:09;;;;;;;18.13;12.32;;;;;;;-145.69;61.72;51899.81;5116907;28;20201;-82
2023/09/10 03:49:35;;;;;;;20.83;13.07;;;;;;;-145.69;62.62;51887.94;5116474;28;20205;-82
2023/09/10 03:52:14;;;;;;;18.90;12.50;;;;;;;-145.69;62.12;51897.84;5115986;28;20232;-82
2023/09/10 03:54:41;;;;;;;20.88;12.45;;;;;;;-145.69;62.29;51941.41;5116891;28;20197;-81
2023/09/10 03:57:09;;;;;;;20.33;11.55;;;;;;;-145.69;61.99;51885.94;5116164;28;20194;-82
2023/09/10 03:59:35;;;;;;;16.27;11.73;;;;;;;-145.69;61.62;51897.84;5116380;28;20193;-82
2023/09/10 04:02:02;;;;;;;16.02;11.25;;;;;;;-145.69;61.64;51909.72;5115631;28;20205;-82
2023/09/10 04:04:28;;;;;;;17.92;12.63;;;;;;;-145.69;62.62;51909.72;5116249;28;20193;-81
2023/09/10 04:06:55;;;;;;;19.80;13.20;;;;;;;-145.69;62.26;51891.88;5116339;28;20190;-82
2023/09/10 04:09:21;;;;;;;18.40;12.45;;;;;;;-145.69;62.14;51939.41;5116353;28;20200;-82
2023/09/10 04:11:48;;;;;;;21.13;13.18;;;;;;;-145.69;62.76;51923.56;5114841;28;20217;-82
2023/09/10 04:14:15;;;;;;;19.67;12.65;;;;;;;-145.69;61.87;51903.78;5116007;28;20200;-83
2023/09/10 04:16:42;;;;;;;15.88;11.77;;;;;;;-145.69;61.71;51937.44;5116167;28;20197;-83
2023/09/10 04:19:08;;;;;;;22.27;12.77;;;;;;;-145.69;61.52;51913.69;5119506;28;20201;-83
2023/09/10 04:21:35;;;;;;;15.32;11.25;;;;;;;-145.69;61.22;51860.22;5116474;28;20193;-83
2023/09/10 04:24:01;;;;;;;16.17;11.35;;;;;;;-145.69;61.34;51925.56;5118353;28;20205;-83
2023/09/10 04:26:28;;;;;;;17.67;11.68;;;;;;;-145.69;61.71;51933.47;5115987;28;20826;-82
2023/09/10 04:28:55;;;;;;;17.77;11.98;;;;;;;-145.69;61.59;51921.59;5116238;28;20644;-82
2023/09/10 04:31:22;;;;;;;20.35;12.32;;;;;;;-145.69;61.38;51935.47;5114909;28;20676;-82
2023/09/10 04:33:49;;;;;;;19.05;13.30;;;;;;;-145.69;62.19;51921.59;5115064;28;20193;-82
2023/09/10 04:36:15;;;;;;;16.10;11.65;;;;;;;-145.69;61.96;51919.63;5116327;28;20197;-83
2023/09/10 04:38:42;;;;;;;21.45;13.05;;;;;;;-145.69;62.26;51927.53;5115758;28;20209;-82
2023/09/10 04:41:08;;;;;;;20.52;12.95;;;;;;;-145.69;62.38;51917.63;5115624;28;20200;-83
2023/09/10 04:43:35;;;;;;;22.05;13.02;;;;;;;-145.69;62.30;51925.56;5115977;28;20208;-82
2023/09/10 04:46:01;;;;;;;18.85;13.70;;;;;;;-145.69;62.21;51866.16;5115395;28;20232;-83
2023/09/10 04:48:29;;;;;;;17.20;12.10;;;;;;;-145.69;62.19;51903.78;5116064;28;20196;-82
2023/09/10 04:50:55;;;;;;;23.40;14.82;;;;;;;-145.69;63.03;51949.31;5114469;28;20217;-82
2023/09/10 04:53:22;;;;;;;19.05;13.02;;;;;;;-145.69;62.58;51911.69;5116084;28;20209;-83
2023/09/10 04:55:53;;;;;;;18.85;12.68;;;;;;;-145.69;62.46;51937.44;5115616;28;20186;-82
2023/09/10 04:58:20;;;;;;;20.50;13.45;;;;;;;-145.69;62.87;51899.81;5115449;28;20717;-81
2023/09/10 05:00:46;;;;;;;21.65;14.65;;;;;;;-145.69;63.21;51889.91;5115091;28;20186;-82
2023/09/10 05:03:13;;;;;;;23.98;16.05;;;;;;;-145.69;63.23;51917.63;5115314;28;20560;-82
2023/09/10 05:05:41;;;;;;;22.13;15.88;;;;;;;-145.69;63.40;51913.69;5115340;28;20221;-82
2023/09/10 05:08:07;;;;;;;25.15;16.65;;;;;;;-145.69;64.24;51901.78;5115282;28;20209;-82
2023/09/10 05:10:33;;;;;;;26.27;17.00;;;;;;;-145.69;64.21;51933.47;5114670;28;20222;-82
2023/09/10 05:13:00;;;;;;;22.85;16.17;;;;;;;-145.69;63.11;51933.47;5115096;28;20197;-82
2023/09/10 05:15:26;;;;;;;25.80;16.83;;;;;;;-145.69;63.99;51923.56;5114479;28;20590;-82
2023/09/10 05:17:53;;;;;;;25.67;16.70;;;;;;;-145.69;63.07;51897.84;5114856;28;20202;-81
2023/09/10 05:20:19;;;;;;;24.05;16.13;;;;;;;-145.69;63.58;51911.69;5114572;28;20656;-81
2023/09/10 05:22:47;;;;;;;27.08;16.38;;;;;;;-145.69;63.64;51933.47;5115202;28;20194;-82
2023/09/10 05:25:13;;;;;;;25.20;16.58;;;;;;;-145.69;64.18;51917.63;5114459;28;20197;-82
2023/09/10 05:27:40;;;;;;;22.15;15.85;;;;;;;-145.69;63.64;51872.09;5114687;28;20194;-82
2023/09/10 05:30:07;;;;;;;23.70;15.95;;;;;;;-145.69;63.19;51866.16;5114407;28;20671;-81
2023/09/10 05:32:34;;;;;;;21.48;14.27;;;;;;;-145.69;62.85;51921.59;5114538;28;20221;-81
2023/09/10 05:35:00;;;;;;;26.88;16.20;;;;;;;-145.69;62.76;51905.75;5114917;28;20208;-82
2023/09/10 05:37:27;;;;;;;19.45;13.32;;;;;;;-145.69;63.18;51913.69;5114589;28;20208;-82
2023/09/10 05:39:54;;;;;;;24.73;15.23;;;;;;;-145.69;62.77;51923.56;5114324;28;20205;-82
2023/09/10 05:42:21;;;;;;;24.98;16.55;;;;;;;-145.69;64.06;51941.41;5098009;28;20201;-82
2023/09/10 05:44:51;;;;;;;24.08;16.92;;;;;;;-145.69;63.00;51909.72;5097642;28;20229;-82
2023/09/10 05:47:19;;;;;;;25.98;17.27;;;;;;;-145.69;63.48;51889.91;5114306;28;20660;-81
2023/09/10 05:49:46;;;;;;;24.02;17.42;;;;;;;-145.69;62.74;51899.81;5113920;28;20251;-82
2023/09/10 05:52:13;;;;;;;26.73;16.67;;;;;;;-145.69;62.87;51882.00;5114250;28;20610;-81
2023/09/10 05:54:39;;;;;;;26.02;17.45;;;;;;;-145.69;63.28;51915.66;5113270;28;20579;-82
2023/09/10 05:57:07;;;;;;;25.63;17.00;;;;;;;-145.69;62.73;51895.84;5114359;28;20201;-81
2023/09/10 05:59:33;;;;;;;25.98;16.50;;;;;;;-145.69;62.59;51893.88;5114022;28;20671;-81
2023/09/10 06:02:00;;;;;;;22.67;16.33;;;;;;;-145.69;63.18;51882.00;5113955;28;20644;-81
2023/09/10 06:04:28;;;;;;;24.48;14.27;;;;;;;-145.69;63.29;51850.31;5113049;28;20232;-82
2023/09/10 06:06:54;;;;;;;22.42;14.98;;;;;;;-145.69;63.50;51887.94;5114217;28;20190;-82
2023/09/10 06:09:21;;;;;;;20.25;14.30;;;;;;;-145.69;63.79;51893.88;5114034;28;20204;-82
2023/09/10 06:11:47;;;;;;;19.77;13.73;;;;;;;-145.69;63.27;51901.78;5113764;28;20225;-81
2023/09/10 06:14:15;;;;;;;19.27;14.00;;;;;;;-145.69;63.10;51909.72;5113843;28;20201;-81
2023/09/10 06:16:41;;;;;;;24.90;15.57;;;;;;;-145.69;63.91;51899.81;5113719;28;20201;-81
2023/09/10 06:19:08;;;;;;;22.58;15.63;;;;;;;-145.69;64.03;51874.06;5113490;28;20215;-81
2023/09/10 06:21:35;;;;;;;26.30;16.10;;;;;;;-145.69;63.64;51901.78;5113316;28;20672;-81
2023/09/10 06:24:01;;;;;;;21.55;14.73;;;;;;;-145.69;63.54;51893.88;5113432;28;20204;-82
2023/09/10 06:26:28;;;;;;;19.70;14.05;;;;;;;-145.69;63.94;51885.94;5113818;28;20208;-82
2023/09/10 06:28:54;;;;;;;22.10;15.55;;;;;;;-145.69;64.26;51891.88;5113368;28;20204;-81
2023/09/10 06:31:22;;;;;;;22.17;15.35;;;;;;;-145.69;63.66;51878.03;5113551;28;20228;-81
2023/09/10 06:33:48;;;;;;;20.67;14.30;;;;;;;-145.69;64.34;51885.94;5112283;28;20652;-81
2023/09/10 06:36:16;;;;;;;21.00;15.07;;;;;;;-145.69;64.53;51901.78;5112765;28;20197;-81
2023/09/10 06:38:47;;;;;;;22.42;15.38;;;;;;;-145.69;64.71;51885.94;5113486;28;20205;-81
2023/09/10 06:41:14;;;;;;;19.45;14.55;;;;;;;-145.69;64.42;51897.84;5093471;28;20197;-81
2023/09/10 06:43:40;;;;;;;21.35;15.75;;;;;;;-145.69;64.31;51891.88;5111087;28;20193;-82
2023/09/10 06:46:07;;;;;;;19.05;14.73;;;;;;;-145.69;64.74;51883.97;5112956;28;20221;-81
2023/09/10 06:48:34;;;;;;;21.02;14.73;;;;;;;-145.69;64.29;51903.78;5113128;28;20205;-82
2023/09/10 06:51:02;;;;;;;20.83;15.27;;;;;;;-145.69;64.24;51868.13;5112531;28;20217;-81
2023/09/10 06:53:28;;;;;;;18.30;13.25;;;;;;;-145.69;64.83;51893.88;5112887;28;20213;-81
2023/09/10 06:55:55;;;;;;;20.48;14.63;;;;;;;-145.69;64.36;51874.06;5113152;28;20200;-81
2023/09/10 06:58:22;;;;;;;23.58;15.57;;;;;;;-145.69;64.63;51897.84;5113369;28;20544;-81
2023/09/10 07:00:48;;;;;;;20.65;15.40;;;;;;;-145.69;64.31;51901.78;5112600;28;20213;-82
2023/09/10 07:03:15;;;;;;;17.90;14.20;;;;;;;-145.69;64.19;51883.97;5113094;28;20205;-82
2023/09/10 07:05:43;;;;;;;20.70;14.93;;;;;;;-145.69;64.59;51889.91;5113112;28;20202;-82
2023/09/10 07:08:11;;;;;;;21.02;15.13;;;;;;;-145.69;64.37;51880.00;5113178;28;20270;-81
2023/09/10 07:10:38;;;;;;;19.95;15.02;;;;;;;-145.69;64.82;51876.06;5112888;28;20254;-82
2023/09/10 07:13:06;;;;;;;19.85;15.20;;;;;;;-145.69;64.45;51878.03;5113600;28;20278;-82
2023/09/10 07:15:33;;;;;;;21.85;15.43;;;;;;;-145.69;64.57;51872.09;5103000;28;20190;-82
2023/09/10 07:17:59;;;;;;;22.13;15.45;;;;;;;-145.69;64.24;51885.94;5097052;28;20202;-82
2023/09/10 07:20:26;;;;;;;20.63;14.48;;;;;;;-145.69;64.46;51889.91;5102868;28;20212;-82
2023/09/10 07:22:54;;;;;;;19.27;14.57;;;;;;;-145.69;63.89;51878.03;5117214;28;20201;-82
2023/09/10 07:25:21;;;;;;;20.35;14.80;;;;;;;-145.69;64.24;51854.28;5111366;28;20641;-82
2023/09/10 07:27:47;;;;;;;19.50;14.82;;;;;;;-145.69;64.40;51850.31;5103085;28;20200;-83
2023/09/10 07:30:14;;;;;;;18.20;14.07;;;;;;;-145.69;63.71;51822.59;5109241;28;20197;-83
2023/09/10 07:32:41;;;;;;;17.90;14.00;;;;;;;-145.69;63.84;51864.16;5099129;28;20218;-83
2023/09/10 07:35:08;;;;;;;19.58;14.52;;;;;;;-145.69;63.66;51826.56;5105304;28;20189;-82
2023/09/10 07:37:35;;;;;;;18.35;13.52;;;;;;;-145.69;63.76;51834.47;5116552;28;20212;-81
2023/09/10 07:40:02;;;;;;;16.95;13.77;;;;;;;-145.69;63.42;51822.59;5117421;28;20201;-82
2023/09/10 07:42:29;;;;;;;23.92;14.10;;;;;;;-145.69;62.87;51834.47;5117283;28;20204;-82
2023/09/10 07:44:55;;;;;;;19.15;12.68;;;;;;;-145.69;62.71;51826.56;5116369;28;20225;-82
2023/09/10 07:47:22;;;;;;;17.70;12.10;;;;;;;-145.69;62.70;51838.44;5116832;28;20208;-81
2023/09/10 07:49:50;;;;;;;16.00;12.68;;;;;;;-145.69;61.99;51836.44;5111644;28;20196;-81
2023/09/10 07:52:17;;;;;;;18.15;12.93;;;;;;;-145.69;60.67;51814.66;5115932;28;20216;-82
2023/09/10 07:54:43;;;;;;;15.75;12.23;;;;;;;-145.69;60.83;51832.50;5115918;28;20205;-80
2023/09/10 07:57:11;;;;;;;16.98;10.95;;;;;;;-145.69;60.81;51838.44;5115596;28;20190;-81
2023/09/10 07:59:37;;;;;;;17.20;11.75;;;;;;;-145.69;60.56;51822.59;5115234;28;20198;-80
2023/09/10 08:02:04;;;;;;;17.38;11.05;;;;;;;-145.69;59.16;51822.59;5116008;28;20193;-80
2023/09/10 08:04:31;;;;;;;17.17;11.35;;;;;;;-145.69;59.09;51846.34;5116289;28;20201;-80
2023/09/10 08:07:00;;;;;;;14.63;10.75;;;;;;;-145.69;59.37;51836.44;5115880;28;20198;-81
2023/09/10 08:09:27;;;;;;;14.35;10.48;;;;;;;-145.69;58.11;51846.34;5115363;28;20197;-81
2023/09/10 08:11:53;;;;;;;17.48;10.52;;;;;;;-145.69;57.80;51814.66;5116032;28;20247;-80
2023/09/10 08:14:21;;;;;;;14.52;10.55;;;;;;;-145.69;56.61;51794.88;5116076;28;20204;-81
2023/09/10 08:16:48;;;;;;;20.88;10.43;;;;;;;-145.69;56.30;51824.56;5097587;28;20262;-81
2023/09/10 08:19:14;;;;;;;17.48;10.18;;;;;;;-145.69;55.31;51794.88;5115454;28;20189;-80
2023/09/10 08:21:42;;;;;;;12.30;9.45;;;;;;;-145.69;54.52;51802.78;5115573;28;20205;-81
2023/09/10 08:24:08;;;;;;;14.35;9.40;;;;;;;-145.69;54.34;51836.44;5115364;28;20319;-80
2023/09/10 08:26:34;;;;;;;13.77;9.05;;;;;;;-145.69;54.11;51769.13;5114532;28;20205;-82
2023/09/10 08:29:01;;;;;;;16.67;9.52;;;;;;;-145.69;52.26;51794.88;5115616;28;20240;-81
2023/09/10 08:31:29;;;;;;;13.85;9.07;;;;;;;-145.69;52.55;51784.97;5115884;28;20190;-81
2023/09/10 08:33:56;;;;;;;14.30;8.95;;;;;;;-145.69;52.00;51798.81;5115691;28;20701;-80
2023/09/10 08:36:22;;;;;;;11.82;8.68;;;;;;;-145.69;50.49;51790.91;5116478;28;20197;-81
2023/09/10 08:38:49;;;;;;;13.05;8.10;;;;;;;-145.69;49.10;51784.97;5115213;28;20656;-80
2023/09/10 08:41:20;;;;;;;12.25;8.35;;;;;;;-145.69;49.25;51763.19;5115166;28;20649;-80
2023/09/10 08:43:51;;;;;;;11.30;7.65;;;;;;;-145.69;49.13;51775.06;5115566;28;20201;-80
2023/09/10 08:46:22;;;;;;;13.95;8.35;;;;;;;-145.69;48.73;51788.94;5115513;28;20221;-81
2023/09/10 08:48:51;;;;;;;12.40;8.20;;;;;;;-145.69;47.98;51783.00;5115538;28;20193;-81
2023/09/10 08:51:19;;;;;;;14.27;7.57;;;;;;;-145.69;48.08;51749.31;5115844;28;20205;-81
2023/09/10 08:53:46;;;;;;;16.80;8.68;;;;;;;-145.69;48.23;51812.69;5116292;28;20203;-80
2023/09/10 08:56:14;;;;;;;14.60;8.25;;;;;;;-145.69;48.11;51792.88;5115035;28;20197;-81
2023/09/10 08:58:42;;;;;;;13.18;7.70;;;;;;;-145.69;48.51;51773.09;5115742;28;20193;-81
2023/09/10 09:01:09;;;;;;;10.82;7.90;;;;;;;-145.69;48.04;51798.81;5114596;28;20201;-80
2023/09/10 09:03:36;;;;;;;11.18;8.23;;;;;;;-145.69;48.28;51806.75;5115311;28;20557;-80
2023/09/10 09:06:05;;;;;;;12.82;7.97;;;;;;;-145.69;47.58;51783.00;5115097;28;20205;-80
2023/09/10 09:08:33;;;;;;;12.15;8.05;;;;;;;-145.69;47.55;51786.94;5114510;28;20682;-81
2023/09/10 09:11:03;;;;;;;15.32;8.57;;;;;;;-145.69;47.95;51798.81;5114711;28;20652;-81
2023/09/10 09:13:30;;;;;;;14.50;8.13;;;;;;;-145.69;48.11;51798.81;5114463;28;20270;-80
2023/09/10 09:15:58;;;;;;;12.38;8.15;;;;;;;-145.69;47.43;51745.38;5115047;28;20193;-80
2023/09/10 09:18:25;;;;;;;10.38;7.60;;;;;;;-145.69;47.77;51779.03;5114763;28;20205;-81
2023/09/10 09:20:53;;;;;;;11.25;7.82;;;;;;;-145.69;46.98;51786.94;5114792;28;20193;-80
2023/09/10 09:23:28;;;;;;;15.13;8.02;;;;;;;-145.69;46.58;51763.19;5114656;28;20679;-80
2023/09/10 09:25:56;;;;;;;12.20;8.23;;;;;;;-145.69;47.00;51771.09;5116102;28;20704;-81
2023/09/10 09:28:23;;;;;;;13.65;8.27;;;;;;;-145.69;46.41;51775.06;5115142;28;20201;-81
2023/09/10 09:30:51;;;;;;;9.30;7.40;;;;;;;-145.69;46.47;51767.16;5115321;28;20678;-80
2023/09/10 09:33:17;;;;;;;10.68;7.60;;;;;;;-145.69;46.40;51765.16;5116987;28;20221;-82
2023/09/10 09:35:46;;;;;;;10.13;7.68;;;;;;;-145.69;46.02;51743.38;5108560;28;20198;-81
2023/09/10 09:38:13;;;;;;;15.00;7.55;;;;;;;-145.69;45.90;51759.22;5112731;28;20204;-83
2023/09/10 09:40:47;;;;;;;12.07;7.75;;;;;;;-145.69;46.01;51783.00;5118090;28;20198;-82
2023/09/10 09:43:14;;;;;;;13.50;8.23;;;;;;;-145.69;46.08;51784.97;5116575;28;20258;-82
2023/09/10 09:45:47;;;;;;;11.82;8.02;;;;;;;-145.69;45.42;51788.94;5112181;28;20309;-81
2023/09/10 09:48:20;;;;;;;12.40;7.63;;;;;;;-145.69;44.86;51747.34;5113761;28;20638;-81
2023/09/10 09:50:50;;;;;;;13.82;7.32;;;;;;;-145.69;44.89;51771.09;5115446;28;20651;-81
2023/09/10 09:53:18;;;;;;;14.52;7.60;;;;;;;-145.69;45.21;51755.25;5114810;28;20229;-81
2023/09/10 09:55:49;;;;;;;12.05;8.50;;;;;;;-145.69;45.52;51779.03;5114453;28;20443;-80
2023/09/10 09:58:21;;;;;;;11.82;8.00;;;;;;;-145.69;44.15;51769.13;5114428;28;20537;-81
2023/09/10 10:00:48;;;;;;;12.55;7.45;;;;;;;-145.69;44.60;51747.34;5113865;28;20717;-82
2023/09/10 10:03:27;;;;;;;12.10;7.40;;;;;;;-145.69;43.97;51751.31;5115541;28;20284;-82
2023/09/10 10:05:57;;;;;;;10.02;7.50;;;;;;;-145.69;43.43;51745.38;5113047;28;20190;-82
2023/09/10 10:08:29;;;;;;;10.55;7.20;;;;;;;-145.69;42.92;51729.53;5113222;28;20194;-83
2023/09/10 10:11:00;;;;;;;13.40;7.40;;;;;;;-145.69;43.16;51739.44;5112226;28;20197;-82
2023/09/10 10:13:28;;;;;;;10.65;6.90;;;;;;;-145.69;42.59;51755.25;5113836;28;20788;-82
2023/09/10 10:15:56;;;;;;;13.27;7.35;;;;;;;-145.69;43.56;51747.34;5114832;28;20644;-82
2023/09/10 10:18:27;;;;;;;9.15;6.63;;;;;;;-145.69;43.00;51741.41;5080834;28;20197;-82
2023/09/10 10:20:58;;;;;;;9.43;7.10;;;;;;;-145.69;42.70;51739.44;5113822;28;20258;-83
2023/09/10 10:23:24;;;;;;;14.85;7.13;;;;;;;-145.69;41.73;51751.31;5113737;28;20198;-82
2023/09/10 10:25:52;;;;;;;10.15;6.13;;;;;;;-145.69;40.38;51733.50;5114883;28;20212;-82
2023/09/10 10:28:21;;;;;;;10.23;5.70;;;;;;;-145.69;40.05;51753.28;5114756;28;20194;-83
2023/09/10 10:30:53;;;;;;;14.45;6.10;;;;;;;-145.69;40.51;51721.59;5114273;28;20189;-82
2023/09/10 10:33:22;;;;;;;9.35;6.10;;;;;;;-145.69;39.81;51737.44;5115133;28;20240;-81
2023/09/10 10:36:04;;;;;;;6.65;4.97;;;;;;;-145.69;38.19;51699.81;5114349;28;20204;-82
2023/09/10 10:38:36;;;;;;;8.88;4.80;;;;;;;-145.69;38.53;51719.63;5114688;28;20284;-83
2023/09/10 10:41:04;;;;;;;10.32;4.95;;;;;;;-145.69;37.70;51723.59;5115527;28;20189;-82
2023/09/10 10:43:43;;;;;;;6.03;4.65;;;;;;;-145.69;37.54;51697.84;5116303;28;20204;-83
2023/09/10 10:46:14;;;;;;;10.43;5.10;;;;;;;-145.69;36.95;51715.66;5114091;28;20679;-83
2023/09/10 10:48:43;;;;;;;6.72;4.03;;;;;;;-145.69;36.53;51707.75;5114742;28;20197;-82
2023/09/10 10:51:14;;;;;;;10.23;4.35;;;;;;;-145.69;35.06;51699.81;5113896;28;20255;-83
2023/09/10 10:53:40;;;;;;;7.40;4.40;;;;;;;-145.69;36.30;51717.66;5114054;28;20225;-82
2023/09/10 10:56:08;;;;;;;6.43;4.60;;;;;;;-145.69;36.73;51703.78;5113256;28;20670;-82
2023/09/10 10:58:40;;;;;;;9.57;5.03;;;;;;;-145.69;36.38;51709.72;5114599;28;20193;-83
2023/09/10 11:01:06;;;;;;;8.13;4.88;;;;;;;-145.69;36.62;51685.97;5113866;28;20225;-82
2023/09/10 11:03:33;;;;;;;5.53;4.05;;;;;;;-145.69;36.47;51719.63;5113466;28;20205;-82
2023/09/10 11:06:08;;;;;;;6.32;4.32;;;;;;;-145.69;36.01;51721.59;5113183;28;20281;-83
2023/09/10 11:08:37;;;;;;;9.63;4.90;;;;;;;-145.69;36.06;51709.72;5114528;28;20188;-83